Time;durP1;ratioP1;P1;durP2;ratioP2;P2;SDS_P1;SDS_P2;PMS_P1;PMS_P2;Temp;Humidity;BMP_temperature;BMP_pressure;BME280_temperature;BME280_humidity;BME280_pressure;Samples;Min_cycle;Max_cycle;Signal;HPM_P1;HPM_P2
2022/06/01 00:02:11;;;;;;;11.00;7.40;;;;;;;17.18;81.01;101125.89;107622;1247;74377;-73
2022/06/01 00:04:40;;;;;;;10.70;7.60;;;;;;;17.24;80.81;101123.23;107626;1248;59218;-70
2022/06/01 00:07:09;;;;;;;10.20;7.60;;;;;;;17.29;80.78;101123.80;107631;1247;59049;-74
2022/06/01 00:09:37;;;;;;;11.90;7.40;;;;;;;17.33;80.80;101117.08;107580;1247;73516;-73
2022/06/01 00:12:09;;;;;;;10.70;7.10;;;;;;;17.36;80.42;101115.23;107557;1247;72943;-72
2022/06/01 00:14:37;;;;;;;8.20;7.00;;;;;;;17.37;80.03;101119.16;107577;1247;71117;-67
2022/06/01 00:17:06;;;;;;;8.50;6.30;;;;;;;17.35;80.02;101120.77;107557;1245;64104;-67
2022/06/01 00:19:35;;;;;;;8.70;6.30;;;;;;;17.32;80.64;101124.42;107508;1247;58596;-70
2022/06/01 00:22:14;;;;;;;8.20;6.20;;;;;;;17.25;82.51;101124.16;107589;1247;59728;-70
2022/06/01 00:24:45;;;;;;;11.90;7.50;;;;;;;17.23;82.11;101125.95;107601;1247;63844;-67
2022/06/01 00:27:17;;;;;;;13.00;7.40;;;;;;;17.24;80.58;101126.39;107497;1248;60669;-69
2022/06/01 00:29:46;;;;;;;9.50;7.90;;;;;;;17.15;80.48;101122.09;107514;1248;60008;-69
2022/06/01 00:32:16;;;;;;;10.80;7.50;;;;;;;17.00;80.40;101120.33;107625;1247;63147;-70
2022/06/01 00:34:45;;;;;;;10.50;7.80;;;;;;;16.89;80.40;101119.96;107521;1247;58861;-70
2022/06/01 00:37:16;;;;;;;10.70;7.80;;;;;;;16.82;80.51;101117.80;107490;1248;60306;-69
2022/06/01 00:39:45;;;;;;;9.40;7.30;;;;;;;16.74;80.93;101115.23;107517;1247;72149;-73
2022/06/01 00:42:20;;;;;;;11.40;7.70;;;;;;;16.66;81.49;101117.45;107485;1247;70683;-67
2022/06/01 00:44:50;;;;;;;8.70;7.00;;;;;;;16.60;82.52;101120.85;107543;1247;68753;-67
2022/06/01 00:47:22;;;;;;;8.60;6.80;;;;;;;16.51;83.47;101120.30;107599;1247;72100;-68
2022/06/01 00:50:24;;;;;;;11.10;7.80;;;;;;;16.40;84.11;101121.98;107516;1247;63271;-69
2022/06/01 00:53:02;;;;;;;13.10;8.70;;;;;;;16.26;84.90;101123.77;107635;1247;60851;-70
2022/06/01 00:55:41;;;;;;;12.30;9.20;;;;;;;16.14;84.96;101124.14;107532;1247;72343;-70
2022/06/01 00:58:18;;;;;;;11.40;9.10;;;;;;;16.04;84.93;101129.23;107645;1247;71802;-69
2022/06/01 01:00:51;;;;;;;11.30;9.30;;;;;;;16.03;84.45;101130.61;108509;1247;69765;-69
2022/06/01 01:03:23;;;;;;;12.10;8.70;;;;;;;16.07;86.96;101129.53;109141;1247;72021;-69
2022/06/01 01:06:10;;;;;;;9.30;8.20;;;;;;;16.15;86.84;101125.27;108194;1248;61805;-69
2022/06/01 01:08:42;;;;;;;11.90;8.60;;;;;;;16.20;86.62;101122.87;107817;1248;60101;-69
2022/06/01 01:11:13;;;;;;;12.40;8.80;;;;;;;16.27;86.19;101119.08;107834;1247;71414;-70
2022/06/01 01:13:48;;;;;;;12.50;8.80;;;;;;;16.29;86.18;101119.80;107786;1247;72477;-70
2022/06/01 01:16:20;;;;;;;13.10;9.30;;;;;;;16.37;86.51;101121.58;107551;1247;70906;-70
2022/06/01 01:18:51;;;;;;;11.50;9.80;;;;;;;16.40;85.78;101116.66;107352;1247;74418;-71
2022/06/01 01:21:38;;;;;;;9.70;8.10;;;;;;;16.42;85.30;101111.95;107349;1248;62764;-70
2022/06/01 01:24:25;;;;;;;8.90;7.60;;;;;;;16.38;85.31;101106.69;107366;1247;60163;-70
2022/06/01 01:26:56;;;;;;;8.80;7.60;;;;;;;16.29;85.86;101102.52;107371;1247;71850;-72
2022/06/01 01:29:45;;;;;;;9.10;7.00;;;;;;;16.23;86.06;101102.80;107325;1250;70462;-72
2022/06/01 01:32:14;;;;;;;11.30;8.10;;;;;;;16.25;84.92;101109.61;107368;1247;69602;-71
2022/06/01 01:34:46;;;;;;;9.50;7.20;;;;;;;16.24;84.35;101114.99;107368;1247;70809;-72
2022/06/01 01:37:25;;;;;;;8.30;7.30;;;;;;;16.27;84.76;101116.89;107386;1248;60619;-72
2022/06/01 01:39:55;;;;;;;10.10;9.00;;;;;;;16.22;85.16;101119.58;107419;1247;58972;-72
2022/06/01 01:42:24;;;;;;;13.50;10.30;;;;;;;16.18;85.49;101119.73;107296;1247;72410;-71
2022/06/01 01:45:12;;;;;;;13.70;10.00;;;;;;;16.08;86.93;101117.97;107338;1247;70313;-73
2022/06/01 01:47:41;;;;;;;13.10;9.60;;;;;;;16.11;86.57;101113.86;107294;1248;70341;-71
2022/06/01 01:50:12;;;;;;;11.50;8.00;;;;;;;16.15;86.92;101116.13;107217;1248;72422;-71
2022/06/01 01:52:41;;;;;;;10.20;8.20;;;;;;;16.18;86.79;101115.21;107278;1247;62909;-70
2022/06/01 01:55:31;;;;;;;11.00;8.70;;;;;;;16.24;85.95;101119.23;107145;1250;59313;-70
2022/06/01 01:58:19;;;;;;;15.60;10.20;;;;;;;16.24;85.90;101109.88;107224;1248;73817;-70
2022/06/01 02:00:57;;;;;;;11.30;9.30;;;;;;;16.14;86.99;101110.09;107366;1247;70690;-71
2022/06/01 02:03:31;;;;;;;13.60;8.50;;;;;;;16.11;87.38;101109.42;107323;1247;69672;-72
2022/06/01 02:06:31;;;;;;;13.60;9.60;;;;;;;16.15;87.19;101109.98;107399;1247;72028;-68
2022/06/01 02:09:06;;;;;;;10.90;9.00;;;;;;;16.21;87.15;101108.77;107415;1247;62139;-69
2022/06/01 02:14:52;;;;;;;12.10;8.40;;;;;;;16.31;86.59;101109.13;107241;1247;72956;-70
2022/06/01 02:17:28;;;;;;;12.80;8.40;;;;;;;16.35;86.36;101115.42;107329;1247;70516;-70
2022/06/01 02:20:10;;;;;;;11.30;8.10;;;;;;;16.37;86.01;101117.63;107288;1248;68374;-68
2022/06/01 02:22:41;;;;;;;9.70;7.00;;;;;;;16.38;85.77;101110.52;107282;1247;73083;-70
2022/06/01 02:25:12;;;;;;;8.80;7.90;;;;;;;16.42;85.63;101110.89;107305;1247;63283;-70
2022/06/01 02:27:44;;;;;;;11.70;7.90;;;;;;;16.43;85.70;101111.63;107302;1247;61594;-72
2022/06/01 02:30:17;;;;;;;10.60;7.30;;;;;;;16.45;85.41;101108.52;107235;1250;74080;-70
2022/06/01 02:32:48;;;;;;;10.30;7.40;;;;;;;16.45;85.48;101113.45;107304;1247;72792;-72
2022/06/01 02:35:21;;;;;;;10.90;7.40;;;;;;;16.46;85.13;101116.14;107110;1248;70243;-69
2022/06/01 02:37:54;;;;;;;;;;;;;;;16.46;85.51;101115.34;107373;1247;74455;-68
2022/06/01 02:40:25;;;;;;;12.50;7.40;;;;;;;16.46;85.44;101121.09;107240;1247;63443;-70
2022/06/01 02:42:54;;;;;;;11.10;7.80;;;;;;;16.46;85.29;101117.19;107385;1247;62783;-67
2022/06/01 02:45:26;;;;;;;10.60;8.90;;;;;;;16.54;84.85;101123.02;107207;1248;74907;-71
2022/06/01 02:47:59;;;;;;;12.20;9.60;;;;;;;16.57;84.61;101131.70;107325;1247;70719;-69
2022/06/01 02:50:32;;;;;;;12.40;10.40;;;;;;;16.49;84.69;101136.84;107345;1247;69415;-69
2022/06/01 02:53:02;;;;;;;13.60;10.10;;;;;;;16.42;84.60;101143.41;107379;1247;72443;-70
2022/06/01 02:55:32;;;;;;;12.50;9.60;;;;;;;16.40;84.52;101135.49;107278;1250;58880;-71
2022/06/01 02:58:02;;;;;;;12.60;9.80;;;;;;;16.40;86.00;101137.08;107342;1247;61196;-71
2022/06/01 03:00:40;;;;;;;19.50;10.80;;;;;;;16.46;85.99;101134.62;106959;1250;72260;-71
2022/06/01 03:03:10;;;;;;;14.80;10.30;;;;;;;16.57;85.70;101134.27;107517;1247;70973;-71
2022/06/01 03:05:41;;;;;;;16.50;10.40;;;;;;;16.65;85.35;101141.36;107479;1247;68364;-72
2022/06/01 03:08:10;;;;;;;14.20;10.40;;;;;;;16.73;85.20;101143.08;107388;1248;73895;-70
2022/06/01 03:10:39;;;;;;;17.50;10.50;;;;;;;16.82;84.74;101145.24;107370;1247;63504;-73
2022/06/01 03:13:21;;;;;;;18.30;10.90;;;;;;;16.93;84.42;101148.66;107444;1247;61847;-72
2022/06/01 03:15:53;;;;;;;13.60;10.60;;;;;;;17.01;84.11;101152.52;107424;1247;72038;-70
2022/06/01 03:18:22;;;;;;;14.70;11.20;;;;;;;17.13;83.66;101158.75;107183;1247;72246;-72
2022/06/01 03:20:51;;;;;;;16.00;11.30;;;;;;;17.16;83.32;101152.27;107429;1247;70423;-73
2022/06/01 03:23:20;;;;;;;14.20;10.90;;;;;;;17.22;82.82;101157.69;107214;1247;74506;-69
2022/06/01 03:25:49;;;;;;;15.10;10.90;;;;;;;17.28;82.59;101162.10;107376;1247;62629;-69
2022/06/01 03:28:19;;;;;;;15.10;10.90;;;;;;;17.26;82.86;101159.52;107202;1247;61740;-72
2022/06/01 03:30:48;;;;;;;16.60;11.10;;;;;;;17.24;82.79;101157.92;107308;1247;73707;-69
2022/06/01 03:33:18;;;;;;;15.40;10.40;;;;;;;17.36;82.39;101160.80;107403;1247;70107;-70
2022/06/01 03:35:47;;;;;;;14.70;10.60;;;;;;;17.44;82.25;101163.90;107311;1247;70679;-74
2022/06/01 03:38:15;;;;;;;13.80;10.10;;;;;;;17.43;82.39;101164.08;107280;1247;73028;-75
2022/06/01 03:40:45;;;;;;;12.60;10.50;;;;;;;17.40;82.64;101163.06;107467;1247;63325;-72
2022/06/01 03:43:14;;;;;;;15.30;10.40;;;;;;;17.44;82.53;101165.02;107469;1247;60027;-69
2022/06/01 03:46:02;;;;;;;14.50;10.10;;;;;;;17.49;82.33;101166.77;107276;1247;62980;-70
2022/06/01 03:48:33;;;;;;;14.90;10.60;;;;;;;17.56;82.05;101163.87;107335;1247;60896;-68
2022/06/01 03:51:04;;;;;;;16.60;10.90;;;;;;;17.64;81.73;101155.88;107508;1247;60503;-70
2022/06/01 03:53:33;;;;;;;13.10;10.10;;;;;;;17.84;80.84;101153.50;107442;1247;71523;-70
2022/06/01 03:56:03;;;;;;;13.60;10.00;;;;;;;17.94;80.44;101151.80;107466;1247;61317;-71
2022/06/01 03:58:32;;;;;;;18.10;10.60;;;;;;;17.95;80.05;101149.38;107484;1247;58906;-72
2022/06/01 04:01:02;;;;;;;13.50;9.90;;;;;;;17.98;79.93;101146.11;107242;1247;64853;-72
2022/06/01 04:03:31;;;;;;;14.60;10.60;;;;;;;18.10;79.59;101145.52;107258;1248;74062;-70
2022/06/01 04:06:00;;;;;;;13.70;9.40;;;;;;;18.23;79.16;101143.34;107378;1247;59109;-71
2022/06/01 04:08:29;;;;;;;12.80;10.00;;;;;;;18.37;79.02;101144.76;107340;1247;72219;-74
2022/06/01 04:10:58;;;;;;;17.00;10.20;;;;;;;18.42;78.10;101147.95;107501;1247;62246;-71
2022/06/01 04:13:28;;;;;;;11.50;10.30;;;;;;;18.45;77.77;101146.58;107412;1247;61549;-68
2022/06/01 04:15:57;;;;;;;13.40;9.90;;;;;;;18.47;77.76;101145.17;107829;1247;74539;-71
2022/06/01 04:18:36;;;;;;;14.70;10.10;;;;;;;18.67;77.56;101150.66;108377;1247;70389;-68
2022/06/01 04:21:05;;;;;;;9.30;8.00;;;;;;;18.81;77.51;101147.77;108062;1247;70041;-72
2022/06/01 04:23:34;;;;;;;10.20;8.50;;;;;;;18.91;76.40;101143.78;107535;1247;64076;-73
2022/06/01 04:26:03;;;;;;;12.60;10.00;;;;;;;18.83;75.64;101140.08;107404;1247;58757;-72
2022/06/01 04:28:33;;;;;;;16.40;10.50;;;;;;;18.87;76.06;101139.09;107483;1247;57482;-75
2022/06/01 04:31:02;;;;;;;14.70;10.10;;;;;;;18.86;76.36;101136.53;107316;1247;72834;-74
2022/06/01 04:33:31;;;;;;;16.00;10.80;;;;;;;19.03;75.99;101137.51;107346;1247;63409;-73
2022/06/01 04:36:00;;;;;;;15.10;9.80;;;;;;;19.22;75.29;101137.70;107379;1247;59927;-75
2022/06/01 04:38:30;;;;;;;13.50;9.60;;;;;;;19.46;74.96;101139.29;107356;1247;74325;-74
2022/06/01 04:40:58;;;;;;;12.60;9.80;;;;;;;19.57;74.08;101138.88;107362;1247;61829;-70
2022/06/01 04:43:28;;;;;;;15.90;10.20;;;;;;;19.64;73.36;101135.69;107505;1247;62224;-71
2022/06/01 04:45:58;;;;;;;13.60;10.80;;;;;;;19.90;73.50;101138.07;107608;1247;74973;-70
2022/06/01 04:48:28;;;;;;;14.30;9.60;;;;;;;20.10;73.57;101137.95;107637;1247;72090;-71
2022/06/01 04:50:58;;;;;;;19.80;9.80;;;;;;;20.15;71.67;101137.42;107337;1247;70150;-71
2022/06/01 04:53:27;;;;;;;14.00;9.50;;;;;;;20.03;71.97;101139.52;107365;1247;63795;-72
2022/06/01 04:55:56;;;;;;;10.50;8.60;;;;;;;20.28;71.80;101141.99;107406;1247;58906;-71
2022/06/01 04:58:25;;;;;;;14.90;8.80;;;;;;;20.46;71.45;101142.54;107359;1247;58704;-69
2022/06/01 05:00:56;;;;;;;11.70;8.90;;;;;;;20.55;70.77;101138.86;107416;1247;72768;-68
2022/06/01 05:03:28;;;;;;;9.80;8.30;;;;;;;20.58;70.38;101141.66;107577;1247;61877;-68
2022/06/01 05:05:57;;;;;;;12.10;8.40;;;;;;;20.50;70.32;101143.38;107607;1247;59888;-70
2022/06/01 05:08:26;;;;;;;12.60;8.60;;;;;;;20.49;70.94;101146.58;107490;1247;63174;-72
2022/06/01 05:10:55;;;;;;;10.80;7.60;;;;;;;20.54;70.46;101144.34;107452;1247;62519;-71
2022/06/01 05:13:23;;;;;;;10.30;7.90;;;;;;;20.73;69.56;101147.10;107328;1248;61147;-70
2022/06/01 05:15:56;;;;;;;8.50;7.40;;;;;;;20.87;69.43;101150.27;107537;1247;74426;-70
2022/06/01 05:18:26;;;;;;;10.90;7.10;;;;;;;20.95;69.18;101147.64;107516;1247;72861;-73
2022/06/01 05:20:55;;;;;;;10.10;7.90;;;;;;;21.01;68.54;101151.21;107222;1248;71408;-70
2022/06/01 05:23:25;;;;;;;11.30;7.80;;;;;;;21.00;68.52;101148.73;107426;1247;74241;-75
2022/06/01 05:25:56;;;;;;;10.30;8.30;;;;;;;21.05;68.75;101148.73;107419;1247;60942;-74
2022/06/01 05:28:29;;;;;;;11.70;8.40;;;;;;;21.15;68.48;101147.74;107313;1247;60866;-71
2022/06/01 05:31:02;;;;;;;9.60;8.40;;;;;;;21.22;68.10;101149.48;107304;1247;74310;-73
2022/06/01 05:33:33;;;;;;;13.60;8.80;;;;;;;21.15;68.25;101148.34;107393;1247;63049;-70
2022/06/01 05:36:03;;;;;;;13.10;8.60;;;;;;;21.23;68.29;101146.58;107512;1247;60631;-71
2022/06/01 05:38:32;;;;;;;13.90;9.20;;;;;;;21.12;68.17;101143.31;107364;1248;62989;-71
2022/06/01 05:41:02;;;;;;;11.90;9.20;;;;;;;20.96;68.54;101140.64;107355;1248;59144;-70
2022/06/01 05:43:31;;;;;;;13.30;8.50;;;;;;;21.11;68.48;101138.24;107509;1247;59079;-71
2022/06/01 05:46:01;;;;;;;11.50;7.80;;;;;;;21.26;67.68;101137.14;107074;1250;62327;-72
2022/06/01 05:48:31;;;;;;;9.30;7.30;;;;;;;21.37;66.96;101132.73;107284;1248;62113;-74
2022/06/01 05:51:00;;;;;;;11.10;7.40;;;;;;;21.46;66.86;101131.58;107436;1247;69252;-74
2022/06/01 05:53:29;;;;;;;10.10;7.30;;;;;;;21.48;66.77;101130.67;107388;1247;72482;-75
2022/06/01 05:55:58;;;;;;;11.30;8.00;;;;;;;21.26;66.92;101125.80;107538;1247;60554;-72
2022/06/01 05:58:29;;;;;;;11.50;7.80;;;;;;;21.25;67.32;101125.75;107599;1246;60890;-76
2022/06/01 06:01:05;;;;;;;13.10;8.00;;;;;;;21.50;66.88;101121.83;107551;1247;74618;-76
2022/06/01 06:03:35;;;;;;;9.30;7.60;;;;;;;21.64;66.71;101120.88;107635;1247;61805;-76
2022/06/01 06:06:15;;;;;;;11.40;7.50;;;;;;;21.69;65.99;101123.28;107607;1247;59269;-75
2022/06/01 06:09:00;;;;;;;12.80;8.10;;;;;;;21.77;65.94;101127.92;107482;1247;62521;-77
2022/06/01 06:11:32;;;;;;;10.30;7.50;;;;;;;21.89;65.71;101122.77;107629;1247;58886;-78
2022/06/01 06:14:03;;;;;;;9.70;7.40;;;;;;;21.82;65.52;101120.58;107555;1247;57602;-77
2022/06/01 06:16:40;;;;;;;15.50;8.40;;;;;;;21.90;65.26;101113.95;107635;1247;73622;-78
2022/06/01 06:19:10;;;;;;;14.00;8.40;;;;;;;21.94;64.77;101115.14;107282;1247;72691;-76
2022/06/01 06:21:39;;;;;;;13.90;8.00;;;;;;;22.05;64.50;101114.45;107608;1247;70453;-75
2022/06/01 06:24:16;;;;;;;11.60;9.10;;;;;;;22.03;64.40;101111.63;107529;1247;63621;-77
2022/06/01 06:26:46;;;;;;;14.40;8.70;;;;;;;22.18;64.62;101106.41;107598;1247;59000;-74
2022/06/01 06:29:18;;;;;;;13.90;8.00;;;;;;;22.30;63.56;101108.40;107555;1247;60493;-76
2022/06/01 06:31:47;;;;;;;18.60;11.30;;;;;;;22.15;63.94;101107.48;107597;1247;63611;-74
2022/06/01 06:34:17;;;;;;;12.20;8.80;;;;;;;22.21;63.93;101106.08;107527;1247;60997;-75
2022/06/01 06:36:46;;;;;;;9.50;8.40;;;;;;;22.34;63.67;101098.47;107504;1247;59991;-76
2022/06/01 06:39:15;;;;;;;12.70;8.10;;;;;;;22.42;63.20;101095.48;107568;1247;62537;-77
2022/06/01 06:41:44;;;;;;;14.00;8.60;;;;;;;22.61;63.00;101094.65;107583;1247;58746;-76
2022/06/01 06:44:13;;;;;;;12.60;9.10;;;;;;;22.71;62.48;101090.14;107637;1247;60630;-75
2022/06/01 06:46:42;;;;;;;12.40;8.80;;;;;;;22.89;62.04;101082.48;107658;1245;62877;-73
2022/06/01 06:49:11;;;;;;;11.50;8.60;;;;;;;22.99;61.64;101084.48;107643;1247;61619;-79
2022/06/01 06:51:40;;;;;;;13.90;8.40;;;;;;;23.07;61.18;101080.30;107568;1247;59396;-73
2022/06/01 06:54:10;;;;;;;13.40;8.00;;;;;;;22.99;61.68;101075.27;107650;1247;62485;-74
2022/06/01 06:56:39;;;;;;;12.20;9.00;;;;;;;22.99;61.11;101076.29;107659;1247;58994;-70
2022/06/01 06:59:08;;;;;;;12.50;8.10;;;;;;;22.94;61.08;101076.42;107668;1247;59669;-76
2022/06/01 07:01:37;;;;;;;11.30;8.30;;;;;;;23.09;60.92;101076.23;107476;1247;72978;-75
2022/06/01 07:04:06;;;;;;;9.30;7.00;;;;;;;23.17;60.65;101074.09;107586;1247;63850;-75
2022/06/01 07:06:36;;;;;;;12.50;8.10;;;;;;;23.21;60.38;101073.84;107498;1247;70437;-74
2022/06/01 07:09:05;;;;;;;12.30;7.50;;;;;;;23.18;60.08;101071.17;107567;1247;74184;-76
2022/06/01 07:11:34;;;;;;;11.40;8.00;;;;;;;23.43;59.69;101071.67;107634;1247;59357;-77
2022/06/01 07:14:03;;;;;;;14.50;8.60;;;;;;;23.44;59.07;101067.09;107687;1247;62665;-80
2022/06/01 07:16:35;;;;;;;13.40;8.60;;;;;;;23.53;59.29;101067.11;107658;1247;73907;-70
2022/06/01 07:19:06;;;;;;;11.00;8.90;;;;;;;23.75;58.74;101069.58;107699;1247;72104;-77
2022/06/01 07:21:38;;;;;;;13.00;8.10;;;;;;;23.73;58.79;101067.02;107550;1247;59510;-78
2022/06/01 07:24:08;;;;;;;11.70;7.50;;;;;;;23.86;58.09;101069.45;107204;1247;73991;-76
2022/06/01 07:26:41;;;;;;;10.40;6.40;;;;;;;23.91;58.23;101065.18;107493;1245;60238;-75
2022/06/01 07:29:10;;;;;;;;;;;;;;;24.02;57.78;101063.17;107619;1247;59648;-75
2022/06/01 07:31:42;;;;;;;12.60;8.60;;;;;;;24.24;57.62;101061.60;107961;1247;73643;-78
2022/06/01 07:34:11;;;;;;;8.30;6.80;;;;;;;24.50;57.27;101061.65;107954;1245;71959;-75
2022/06/01 07:36:40;;;;;;;11.20;8.00;;;;;;;24.66;55.17;101061.45;107789;1246;70331;-79
2022/06/01 07:44:53;;;;;;;9.80;6.90;;;;;;;24.94;54.13;101049.15;107219;1247;59931;-76
2022/06/01 07:47:23;;;;;;;9.90;7.20;;;;;;;24.97;54.37;101047.24;107455;1247;75029;-79
2022/06/01 07:50:11;;;;;;;12.80;6.70;;;;;;;25.19;54.29;101048.75;107420;1247;72087;-77
2022/06/01 07:53:03;;;;;;;9.90;6.70;;;;;;;25.34;53.18;101043.39;107251;1248;70830;-77
2022/06/01 07:55:33;;;;;;;12.80;6.70;;;;;;;25.36;52.79;101044.75;107312;1247;73600;-72
2022/06/01 07:58:03;;;;;;;10.40;7.30;;;;;;;25.08;53.03;101043.29;107441;1247;59590;-77
2022/06/01 08:00:32;;;;;;;9.20;7.00;;;;;;;25.04;53.54;101038.55;107565;1247;60405;-75
2022/06/01 08:03:01;;;;;;;14.30;7.20;;;;;;;25.21;53.22;101039.50;107594;1247;75515;-77
2022/06/01 08:05:31;;;;;;;9.00;6.50;;;;;;;25.41;52.89;101041.80;107522;1247;72631;-76
2022/06/01 08:08:00;;;;;;;11.20;7.20;;;;;;;25.58;52.28;101040.14;107612;1247;60493;-78
2022/06/01 08:10:29;;;;;;;9.10;5.50;;;;;;;25.62;51.95;101039.53;107517;1247;62526;-78
2022/06/01 08:13:07;;;;;;;15.00;6.80;;;;;;;25.84;51.40;101034.66;107503;1248;59595;-82
2022/06/01 08:15:40;;;;;;;9.60;6.40;;;;;;;25.78;50.82;101034.08;107414;1247;59108;-77
2022/06/01 08:18:11;;;;;;;11.70;5.60;;;;;;;26.02;50.09;101039.19;107534;1247;73634;-79
2022/06/01 08:20:40;;;;;;;9.50;5.90;;;;;;;26.00;49.18;101039.50;107548;1247;71135;-77
2022/06/01 08:23:09;;;;;;;9.70;5.60;;;;;;;26.20;48.34;101043.35;107422;1247;59597;-78
2022/06/01 08:25:40;;;;;;;8.70;5.20;;;;;;;26.27;47.71;101040.30;107384;1247;72395;-77
2022/06/01 08:28:10;;;;;;;9.80;5.80;;;;;;;26.45;47.06;101043.73;107432;1247;59597;-76
2022/06/01 08:30:40;;;;;;;9.50;5.40;;;;;;;26.64;47.15;101037.42;107590;1247;61120;-82
2022/06/01 08:33:10;;;;;;;8.10;5.70;;;;;;;26.61;47.47;101041.14;107542;1247;74193;-76
2022/06/01 08:35:47;;;;;;;8.40;5.70;;;;;;;26.86;46.65;101042.09;107432;1247;63003;-74
2022/06/01 08:38:16;;;;;;;8.20;5.20;;;;;;;26.96;46.43;101042.85;107563;1247;69387;-77
2022/06/01 08:41:07;;;;;;;9.40;6.00;;;;;;;26.99;46.39;101045.33;107548;1247;74427;-77
2022/06/01 08:43:58;;;;;;;7.20;5.20;;;;;;;27.01;46.35;101038.70;107567;1247;61042;-79
2022/06/01 08:46:29;;;;;;;7.20;5.10;;;;;;;27.21;46.79;101036.05;107590;1247;59552;-79
2022/06/01 08:49:12;;;;;;;9.60;5.20;;;;;;;27.33;45.75;101037.83;107615;1247;73610;-73
2022/06/01 08:51:41;;;;;;;7.80;5.40;;;;;;;27.53;45.56;101034.59;107536;1247;61051;-76
2022/06/01 08:54:10;;;;;;;9.80;5.70;;;;;;;27.82;45.61;101034.86;107548;1247;71094;-75
2022/06/01 08:56:47;;;;;;;8.30;5.80;;;;;;;27.97;44.68;101033.69;107525;1247;73479;-76
2022/06/01 08:59:40;;;;;;;8.40;5.60;;;;;;;28.13;43.89;101027.85;107420;1247;60838;-76
2022/06/01 09:02:38;;;;;;;6.70;4.90;;;;;;;28.23;43.59;101029.33;107533;1245;59494;-79
2022/06/01 09:05:35;;;;;;;12.80;4.50;;;;;;;28.33;43.48;101023.27;107623;1247;74454;-82
2022/06/01 09:08:13;;;;;;;8.50;5.10;;;;;;;28.50;42.93;101019.06;107614;1247;61442;-77
2022/06/01 09:11:02;;;;;;;7.90;5.10;;;;;;;28.33;42.54;101015.88;107733;1246;60057;-79
2022/06/01 09:13:39;;;;;;;9.10;5.40;;;;;;;28.53;42.71;101011.93;107710;1246;63237;-79
2022/06/01 09:16:17;;;;;;;11.00;5.20;;;;;;;28.79;41.94;101009.12;107775;1246;60697;-79
2022/06/01 09:18:53;;;;;;;7.60;4.90;;;;;;;28.91;41.39;101012.63;107611;1247;60788;-74
2022/06/01 09:24:34;;;;;;;9.50;5.20;;;;;;;28.93;42.09;101007.73;107734;1247;71832;-78
2022/06/01 09:27:08;;;;;;;9.50;4.90;;;;;;;28.99;40.98;101015.27;107756;1246;69143;-78
2022/06/01 09:29:52;;;;;;;8.30;5.10;;;;;;;28.61;41.96;101019.28;107794;1245;73816;-77
2022/06/01 09:32:27;;;;;;;11.40;5.30;;;;;;;28.88;41.50;101014.07;107448;1247;57863;-79
2022/06/01 09:35:02;;;;;;;8.20;5.30;;;;;;;29.27;40.85;101013.91;107423;1248;59718;-78
2022/06/01 09:37:45;;;;;;;5.80;4.50;;;;;;;29.38;40.83;101010.62;107671;1247;64729;-76
2022/06/01 09:40:31;;;;;;;8.70;4.30;;;;;;;29.39;40.07;101010.42;107760;1247;60867;-81
2022/06/01 09:43:00;;;;;;;7.90;4.60;;;;;;;29.33;39.98;101004.67;108510;1247;69766;-77
2022/06/01 09:45:53;;;;;;;6.40;4.70;;;;;;;29.04;40.47;101006.58;108246;1247;63303;-78
2022/06/01 09:48:44;;;;;;;7.30;4.60;;;;;;;28.92;40.99;101005.88;107701;1247;59634;-81
2022/06/01 09:51:23;;;;;;;8.60;5.00;;;;;;;28.54;41.33;101003.64;107697;1247;59491;-82
2022/06/01 09:54:10;;;;;;;8.70;4.90;;;;;;;28.39;41.39;101009.02;107638;1247;74480;-78
2022/06/01 09:56:48;;;;;;;7.10;4.90;;;;;;;27.93;42.31;101008.05;107942;1246;61532;-81
2022/06/01 10:08:29;;;;;;;6.00;4.80;;;;;;;27.79;43.09;101010.89;107642;1247;57871;-78
2022/06/01 10:11:26;;;;;;;7.50;4.40;;;;;;;28.06;42.50;101004.42;107617;1247;75510;-80
2022/06/01 10:14:16;;;;;;;6.50;4.40;;;;;;;28.26;41.44;101003.64;107734;1247;72988;-79
2022/06/01 10:17:06;;;;;;;7.80;4.80;;;;;;;28.15;41.89;101002.91;107746;1247;60496;-76
2022/06/01 10:19:56;;;;;;;5.40;4.30;;;;;;;28.02;42.19;101004.73;107648;1247;73905;-78
2022/06/01 10:22:40;;;;;;;7.60;4.60;;;;;;;27.83;42.84;101007.13;107854;1247;59639;-74
2022/06/01 10:25:47;;;;;;;7.70;4.60;;;;;;;27.80;43.26;100997.50;107747;1247;60389;-78
2022/06/01 10:28:27;;;;;;;5.70;4.10;;;;;;;27.84;43.05;100992.69;107612;1247;63774;-76
2022/06/01 10:31:21;;;;;;;6.00;4.10;;;;;;;27.84;43.02;100981.95;107630;1247;61668;-74
2022/06/01 10:34:16;;;;;;;10.40;5.20;;;;;;;27.99;43.02;100976.63;107299;1247;70623;-78
2022/06/01 10:36:53;;;;;;;7.80;4.70;;;;;;;28.36;42.11;100974.54;107733;1247;63636;-78
2022/06/01 10:40:35;;;;;;;7.80;4.50;;;;;;;29.12;41.89;100973.25;107621;1247;60698;-79
2022/06/01 10:43:20;;;;;;;7.70;4.80;;;;;;;29.75;39.93;100979.41;106920;1255;59482;-77
2022/06/01 10:46:05;;;;;;;6.40;4.30;;;;;;;29.78;38.62;100987.30;106889;1254;63093;-78
2022/06/01 10:48:46;;;;;;;7.50;4.30;;;;;;;29.06;39.40;100986.90;107690;1247;72338;-77
2022/06/01 10:51:30;;;;;;;8.80;4.70;;;;;;;28.87;39.99;100980.53;107893;1247;71261;-77
2022/06/01 10:54:36;;;;;;;7.10;4.00;;;;;;;29.06;39.71;100977.50;107929;1246;63777;-78
2022/06/01 10:57:10;;;;;;;7.70;4.50;;;;;;;29.26;39.52;100973.44;107523;1247;59551;-80
2022/06/01 10:59:39;;;;;;;8.20;4.90;;;;;;;29.15;39.24;100967.59;107473;1247;57791;-76
2022/06/01 11:03:08;;;;;;;7.00;4.40;;;;;;;29.09;39.30;100970.98;107761;1247;64315;-75
2022/06/01 11:06:05;;;;;;;8.90;3.80;;;;;;;29.26;38.86;100962.61;107761;1247;71438;-77
2022/06/01 11:09:01;;;;;;;7.70;4.20;;;;;;;29.57;38.46;100962.92;107539;1248;61440;-76
2022/06/01 11:12:04;;;;;;;9.50;4.40;;;;;;;29.53;37.86;100970.67;107530;1247;73631;-74
2022/06/01 11:15:06;;;;;;;8.60;4.40;;;;;;;29.91;37.78;100969.27;107734;1247;59656;-78
2022/06/01 11:17:44;;;;;;;9.40;4.50;;;;;;;30.63;37.58;100969.38;107582;1247;58984;-78
2022/06/01 11:21:07;;;;;;;6.90;4.30;;;;;;;31.24;37.32;100970.61;107630;1247;64567;-74
2022/06/01 11:24:08;;;;;;;6.40;3.70;;;;;;;32.09;35.71;100971.73;107586;1247;72406;-74
2022/06/01 11:28:01;;;;;;;8.40;4.30;;;;;;;32.40;34.28;100970.73;107443;1247;61144;-78
2022/06/01 11:31:00;;;;;;;7.40;3.90;;;;;;;31.57;35.43;100967.23;107328;1247;73405;-80
2022/06/01 11:33:50;;;;;;;5.80;3.70;;;;;;;31.42;35.62;100966.10;107390;1247;58980;-79
2022/06/01 11:36:28;;;;;;;6.50;3.60;;;;;;;31.28;35.98;100963.41;107591;1247;59504;-80
2022/06/01 11:39:39;;;;;;;5.30;3.70;;;;;;;31.14;36.20;100962.65;107308;1247;74388;-76
2022/06/01 11:42:45;;;;;;;7.70;3.40;;;;;;;30.59;38.12;100960.42;107157;1248;72310;-77
2022/06/01 11:45:22;;;;;;;4.80;3.50;;;;;;;30.24;39.06;100951.19;107424;1247;71178;-76
2022/06/01 11:48:02;;;;;;;6.40;3.70;;;;;;;30.27;38.75;100941.18;107419;1246;75061;-80
2022/06/01 11:51:21;;;;;;;7.30;3.50;;;;;;;30.54;37.95;100934.81;106974;1247;58290;-77
2022/06/01 11:54:16;;;;;;;8.30;3.40;;;;;;;31.43;36.32;100932.64;107527;1247;58323;-81
2022/06/01 11:56:59;;;;;;;5.70;3.50;;;;;;;31.97;34.79;100930.80;107689;1247;65335;-80
2022/06/01 11:59:27;;;;;;;6.90;3.40;;;;;;;32.89;33.65;100928.15;107713;1247;72178;-78
2022/06/01 12:02:41;;;;;;;6.60;3.70;;;;;;;33.17;33.35;100931.08;107605;1247;61612;-81
2022/06/01 12:05:23;;;;;;;4.60;3.20;;;;;;;33.49;32.23;100937.98;107614;1247;63353;-74
2022/06/01 12:08:05;;;;;;;7.20;3.80;;;;;;;33.86;31.61;100944.27;107526;1247;59679;-75
2022/06/01 12:11:00;;;;;;;6.40;3.70;;;;;;;32.77;33.05;100955.12;107625;1247;59589;-70
2022/06/01 12:13:38;;;;;;;5.90;3.60;;;;;;;33.60;32.30;100963.63;107647;1247;74483;-72
2022/06/01 12:16:21;;;;;;;7.00;4.00;;;;;;;33.52;32.28;100967.98;107386;1247;73058;-72